Time;durP1;ratioP1;P1;durP2;ratioP2;P2;SDS_P1;SDS_P2;PMS_P1;PMS_P2;Temp;Humidity;BMP_temperature;BMP_pressure;BME280_temperature;BME280_humidity;BME280_pressure;Samples;Min_cycle;Max_cycle;Signal;HPM_P1;HPM_P2
2022/12/01 00:02:09;;;;;;;30.10;17.00;;;9.20;99.90;;;;;;5055920;28;20178;-70
2022/12/01 00:04:35;;;;;;;25.40;18.03;;;9.50;99.90;;;;;;5052482;28;20177;-69
2022/12/01 00:07:01;;;;;;;32.20;18.40;;;9.50;99.90;;;;;;5055578;28;20216;-70
2022/12/01 00:12:10;;;;;;;30.93;18.50;;;9.60;99.90;;;;;;5035422;28;20197;-70
2022/12/01 00:14:36;;;;;;;36.73;20.43;;;9.60;99.90;;;;;;5056017;28;20408;-70
2022/12/01 00:17:04;;;;;;;40.13;20.33;;;9.60;99.90;;;;;;5054394;28;20224;-70
2022/12/01 00:19:29;;;;;;;34.20;18.97;;;9.60;99.90;;;;;;5055916;28;20504;-69
2022/12/01 00:21:55;;;;;;;35.40;18.50;;;9.60;99.90;;;;;;5055622;28;20487;-69
2022/12/01 00:24:22;;;;;;;36.80;19.57;;;9.60;99.90;;;;;;5055200;28;20297;-69
2022/12/01 00:26:48;;;;;;;37.87;18.80;;;9.60;99.90;;;;;;5054610;28;20508;-69
2022/12/01 00:29:14;;;;;;;32.70;19.97;;;9.70;99.90;;;;;;5055158;28;20417;-69
2022/12/01 00:31:40;;;;;;;33.77;19.63;;;9.60;99.90;;;;;;5054458;28;20469;-69
2022/12/01 00:34:06;;;;;;;34.00;19.60;;;9.60;99.90;;;;;;5055064;28;20184;-70
2022/12/01 00:36:31;;;;;;;34.17;20.70;;;9.60;99.90;;;;;;5055636;28;20419;-69
2022/12/01 00:38:57;;;;;;;32.97;19.30;;;9.60;99.90;;;;;;5054521;28;20657;-69
2022/12/01 00:41:24;;;;;;;36.50;19.80;;;9.60;99.90;;;;;;5054907;28;20422;-70
2022/12/01 00:43:50;;;;;;;31.43;19.90;;;9.60;99.90;;;;;;5055393;28;20201;-69
2022/12/01 00:46:17;;;;;;;29.90;18.90;;;9.60;99.90;;;;;;5054822;28;20474;-69
2022/12/01 00:48:42;;;;;;;31.80;18.47;;;9.60;99.90;;;;;;5055389;28;20412;-70
2022/12/01 00:51:08;;;;;;;32.10;18.20;;;9.80;99.90;;;;;;5054638;28;20416;-70
2022/12/01 00:53:34;;;;;;;23.93;16.37;;;9.60;99.90;;;;;;5053848;28;20175;-69
2022/12/01 00:55:59;;;;;;;23.60;16.60;;;9.70;99.90;;;;;;5055202;28;20175;-69
2022/12/01 00:58:25;;;;;;;26.20;16.47;;;9.70;99.90;;;;;;5054972;28;20166;-69
2022/12/01 01:00:59;;;;;;;26.90;17.97;;;9.80;99.90;;;;;;5053520;28;20227;-69
2022/12/01 01:03:26;;;;;;;30.00;17.20;;;9.70;99.90;;;;;;5054568;28;20542;-69
2022/12/01 01:05:51;;;;;;;27.83;16.37;;;9.70;99.90;;;;;;5055052;28;20511;-69
2022/12/01 01:08:17;;;;;;;25.20;16.67;;;9.70;99.90;;;;;;5053577;28;20431;-69
2022/12/01 01:10:44;;;;;;;28.20;16.17;;;9.70;99.90;;;;;;5054963;28;20229;-69
2022/12/01 01:13:11;;;;;;;27.17;17.27;;;9.60;99.90;;;;;;5052418;28;20804;-70
2022/12/01 01:15:37;;;;;;;25.43;17.13;;;9.60;99.90;;;;;;5055047;28;20410;-70
2022/12/01 01:18:04;;;;;;;24.50;16.00;;;9.60;99.90;;;;;;5054000;28;20899;-71
2022/12/01 01:20:30;;;;;;;25.80;18.53;;;9.60;99.90;;;;;;5055092;28;20428;-70
2022/12/01 01:22:56;;;;;;;29.00;17.67;;;9.70;99.90;;;;;;5053380;28;20479;-70
2022/12/01 01:25:22;;;;;;;27.50;16.80;;;9.70;99.90;;;;;;5054098;28;21121;-70
2022/12/01 01:27:48;;;;;;;29.73;18.87;;;9.70;99.90;;;;;;5054642;28;20178;-69
2022/12/01 01:30:14;;;;;;;25.50;17.20;;;9.70;99.90;;;;;;5053162;28;20498;-69
2022/12/01 01:32:39;;;;;;;25.50;16.67;;;9.70;99.90;;;;;;5054620;28;20582;-69
2022/12/01 01:35:06;;;;;;;25.30;18.00;;;9.60;99.90;;;;;;5054227;28;20419;-70
2022/12/01 01:37:31;;;;;;;28.87;18.77;;;9.70;99.90;;;;;;5054536;28;20171;-70
2022/12/01 01:39:57;;;;;;;28.87;17.20;;;9.70;99.90;;;;;;5054482;28;20419;-69
2022/12/01 01:42:23;;;;;;;28.50;18.17;;;9.70;99.90;;;;;;5053730;28;20747;-70
2022/12/01 01:44:57;;;;;;;30.90;18.37;;;9.80;99.90;;;;;;5053407;28;20192;-69
2022/12/01 01:47:39;;;;;;;29.33;18.13;;;9.80;99.90;;;;;;5053736;28;20186;-69
2022/12/01 01:50:11;;;;;;;26.20;17.70;;;9.70;99.90;;;;;;5052198;28;20925;-70
2022/12/01 01:52:43;;;;;;;26.00;17.40;;;9.70;99.90;;;;;;5053937;28;20418;-69
2022/12/01 01:55:09;;;;;;;28.37;18.30;;;9.70;99.90;;;;;;5054014;28;20404;-70
2022/12/01 01:57:35;;;;;;;26.40;16.80;;;9.70;99.90;;;;;;5054123;28;20508;-69
2022/12/01 02:00:12;;;;;;;28.90;17.80;;;9.70;99.90;;;;;;5051726;28;20511;-70
2022/12/01 02:02:43;;;;;;;28.63;18.87;;;9.60;99.90;;;;;;5052043;28;20464;-70
2022/12/01 02:05:15;;;;;;;26.10;17.37;;;9.70;99.90;;;;;;5051814;28;20491;-70
2022/12/01 02:07:41;;;;;;;28.30;18.10;;;9.70;99.90;;;;;;5054516;28;20443;-69
2022/12/01 02:10:10;;;;;;;27.27;18.40;;;9.70;99.90;;;;;;5051034;28;20935;-70
2022/12/01 02:12:55;;;;;;;34.50;19.33;;;9.70;99.90;;;;;;5052734;28;20432;-69
2022/12/01 02:15:34;;;;;;;33.80;20.00;;;9.70;99.90;;;;;;5053242;28;20397;-70
2022/12/01 02:18:13;;;;;;;34.70;19.93;;;9.70;99.90;;;;;;5053826;28;20405;-69
2022/12/01 02:20:57;;;;;;;36.67;20.33;;;9.70;99.90;;;;;;5053735;28;20409;-69
2022/12/01 02:24:00;;;;;;;39.93;21.20;;;9.70;99.90;;;;;;5051952;28;21034;-70
2022/12/01 02:26:49;;;;;;;33.47;19.47;;;9.60;99.90;;;;;;5052902;28;21074;-69
2022/12/01 02:29:40;;;;;;;31.87;18.53;;;9.70;99.90;;;;;;5051468;28;20429;-69
2022/12/01 02:32:11;;;;;;;36.73;20.30;;;9.70;99.90;;;;;;5053520;28;20447;-69
2022/12/01 02:35:02;;;;;;;33.87;19.63;;;9.80;99.90;;;;;;5052349;28;20437;-69
2022/12/01 02:37:46;;;;;;;34.90;19.33;;;9.70;99.90;;;;;;5051786;28;20412;-70
2022/12/01 02:40:17;;;;;;;37.03;20.80;;;9.70;99.90;;;;;;5051599;28;20513;-70
2022/12/01 02:42:49;;;;;;;34.97;19.63;;;9.60;99.90;;;;;;5053204;28;20543;-70
2022/12/01 02:45:24;;;;;;;37.57;20.90;;;9.60;99.90;;;;;;5052151;28;20422;-70
2022/12/01 02:47:54;;;;;;;34.20;20.50;;;9.50;99.90;;;;;;5052739;28;20435;-70
2022/12/01 02:50:22;;;;;;;33.00;20.27;;;9.60;99.90;;;;;;5032384;28;20417;-70
2022/12/01 02:52:48;;;;;;;35.37;20.87;;;9.60;99.90;;;;;;5033167;28;20421;-70
2022/12/01 02:55:14;;;;;;;35.57;19.50;;;9.70;99.90;;;;;;5032564;28;20418;-69
2022/12/01 02:57:40;;;;;;;34.20;19.03;;;9.70;99.90;;;;;;5045694;28;20424;-69
2022/12/01 03:00:06;;;;;;;35.00;20.00;;;9.50;99.90;;;;;;5051261;28;20593;-70
2022/12/01 03:02:59;;;;;;;32.97;19.87;;;9.50;99.90;;;;;;5050849;28;20206;-70
2022/12/01 03:05:48;;;;;;;36.80;20.90;;;9.40;99.90;;;;;;5052297;28;20409;-70
2022/12/01 03:08:31;;;;;;;36.17;19.73;;;9.30;99.90;;;;;;5031067;28;20435;-70
2022/12/01 03:10:58;;;;;;;32.93;19.47;;;9.40;99.90;;;;;;5053006;28;20401;-69
2022/12/01 03:13:51;;;;;;;29.43;18.90;;;9.40;99.90;;;;;;5052388;28;20423;-69
2022/12/01 03:16:35;;;;;;;30.93;19.97;;;9.30;99.90;;;;;;5051063;28;20495;-70
2022/12/01 03:19:15;;;;;;;33.63;20.50;;;9.30;99.90;;;;;;5053057;28;20424;-69
2022/12/01 03:21:49;;;;;;;36.07;19.33;;;9.40;99.90;;;;;;5052712;28;20487;-69
2022/12/01 03:24:20;;;;;;;29.43;19.07;;;9.40;99.90;;;;;;5049971;28;20854;-69
2022/12/01 03:26:50;;;;;;;33.00;18.53;;;9.30;99.90;;;;;;5052656;28;20475;-69
2022/12/01 03:29:29;;;;;;;30.90;19.60;;;9.40;99.90;;;;;;5050522;28;20455;-70
2022/12/01 03:32:02;;;;;;;32.47;19.17;;;9.40;99.90;;;;;;5052606;28;20420;-69
2022/12/01 03:34:46;;;;;;;29.83;18.93;;;9.40;99.90;;;;;;5051943;28;20418;-69
2022/12/01 03:37:20;;;;;;;32.53;20.17;;;9.40;99.90;;;;;;5051930;28;20735;-70
2022/12/01 03:39:47;;;;;;;31.90;19.10;;;9.40;99.90;;;;;;5052462;28;20408;-69
2022/12/01 03:42:46;;;;;;;27.33;19.37;;;9.30;99.90;;;;;;5051765;28;20873;-69
2022/12/01 03:45:18;;;;;;;32.50;19.70;;;9.20;99.90;;;;;;5037835;28;20431;-70
2022/12/01 03:47:45;;;;;;;34.57;19.20;;;9.10;99.90;;;;;;5052550;28;20411;-69
2022/12/01 03:50:12;;;;;;;32.13;20.10;;;9.10;99.90;;;;;;5052374;28;20450;-69
2022/12/01 03:52:57;;;;;;;32.50;20.23;;;9.10;99.90;;;;;;5051329;28;20444;-69
2022/12/01 03:55:30;;;;;;;32.57;19.77;;;9.10;99.90;;;;;;5050579;28;20443;-69
2022/12/01 03:58:00;;;;;;;38.63;19.40;;;9.20;99.90;;;;;;5052218;28;20495;-69
2022/12/01 04:00:26;;;;;;;35.00;20.83;;;9.20;99.90;;;;;;5051140;28;20529;-69
2022/12/01 04:02:56;;;;;;;36.53;21.20;;;9.30;99.90;;;;;;5052116;28;20464;-70
2022/12/01 04:05:23;;;;;;;34.07;20.60;;;9.30;99.90;;;;;;5051543;28;20763;-70
2022/12/01 04:07:48;;;;;;;35.67;20.37;;;9.30;99.90;;;;;;5052010;28;20414;-70
2022/12/01 04:10:14;;;;;;;35.10;20.27;;;9.50;99.90;;;;;;5051501;28;20404;-70
2022/12/01 04:12:40;;;;;;;31.90;18.80;;;9.30;99.90;;;;;;5052205;28;20177;-69
2022/12/01 04:15:09;;;;;;;30.70;19.63;;;9.30;99.90;;;;;;5050970;28;20193;-70
2022/12/01 04:17:35;;;;;;;34.23;20.30;;;9.30;99.90;;;;;;5051440;28;20166;-69
2022/12/01 04:20:01;;;;;;;35.43;20.07;;;9.50;99.90;;;;;;5050960;28;20856;-69
2022/12/01 04:22:27;;;;;;;33.43;19.90;;;9.40;99.90;;;;;;5051354;28;20438;-69
2022/12/01 04:24:52;;;;;;;31.60;19.37;;;9.40;99.90;;;;;;5050820;28;20471;-69
2022/12/01 04:27:19;;;;;;;39.17;19.97;;;9.30;99.90;;;;;;5050502;28;20482;-70
2022/12/01 04:29:45;;;;;;;37.17;20.73;;;9.30;99.90;;;;;;5054295;28;20625;-69
2022/12/01 04:32:12;;;;;;;37.63;21.10;;;9.40;99.90;;;;;;5055406;28;20455;-70
2022/12/01 04:34:38;;;;;;;38.83;21.07;;;9.40;99.90;;;;;;5054046;28;20190;-70
2022/12/01 04:37:05;;;;;;;36.30;20.40;;;9.40;99.90;;;;;;5054329;28;20901;-69
2022/12/01 04:39:30;;;;;;;42.27;20.97;;;9.40;99.90;;;;;;5054984;28;20846;-69
2022/12/01 04:41:56;;;;;;;37.40;20.30;;;9.40;99.90;;;;;;5055288;28;20489;-69
2022/12/01 04:44:22;;;;;;;34.10;19.77;;;9.40;99.90;;;;;;5053618;28;20460;-70
2022/12/01 04:46:50;;;;;;;38.17;20.00;;;9.40;99.90;;;;;;5055217;28;20220;-69
2022/12/01 04:49:15;;;;;;;39.67;19.90;;;9.40;99.90;;;;;;5053971;28;20178;-70
2022/12/01 04:51:41;;;;;;;35.20;19.80;;;9.40;99.90;;;;;;5055410;28;20528;-69
2022/12/01 04:54:07;;;;;;;30.83;18.57;;;9.30;99.90;;;;;;5054110;28;20193;-70
2022/12/01 04:56:32;;;;;;;32.40;19.43;;;9.30;99.90;;;;;;5054648;28;20177;-69
2022/12/01 04:58:58;;;;;;;30.17;17.30;;;9.30;99.90;;;;;;5054909;28;20177;-69
2022/12/01 05:01:24;;;;;;;35.27;20.97;;;9.20;99.90;;;;;;5055039;28;20174;-69
2022/12/01 05:03:50;;;;;;;34.13;20.13;;;9.30;99.90;;;;;;5053437;28;20502;-69
2022/12/01 05:06:19;;;;;;;35.87;19.67;;;9.30;99.90;;;;;;5054590;28;20927;-72
2022/12/01 05:08:45;;;;;;;38.67;20.10;;;9.40;99.90;;;;;;5053785;28;20185;-69
2022/12/01 05:11:12;;;;;;;34.17;19.97;;;9.40;99.90;;;;;;5054669;28;20459;-70
2022/12/01 05:13:42;;;;;;;35.13;21.23;;;9.20;99.90;;;;;;5052334;28;20404;-70
2022/12/01 05:16:10;;;;;;;30.97;19.17;;;9.30;99.90;;;;;;5054579;28;20445;-70
2022/12/01 05:18:36;;;;;;;38.27;19.83;;;9.40;99.90;;;;;;5053734;28;20585;-70
2022/12/01 05:21:04;;;;;;;36.13;20.80;;;9.30;99.90;;;;;;5052227;28;20979;-70
2022/12/01 05:23:32;;;;;;;26.17;19.00;;;9.10;99.90;;;;;;5049071;28;20492;-70
2022/12/01 05:25:59;;;;;;;34.17;21.73;;;9.10;99.90;;;;;;5053714;28;20816;-70
2022/12/01 05:28:25;;;;;;;33.40;18.87;;;9.20;99.90;;;;;;5052481;28;20497;-69
2022/12/01 05:30:53;;;;;;;30.60;17.43;;;9.30;99.90;;;;;;5054234;28;20486;-70
2022/12/01 05:33:20;;;;;;;27.07;17.77;;;9.30;99.90;;;;;;5053046;28;20429;-72
2022/12/01 05:35:47;;;;;;;29.77;17.47;;;9.30;99.90;;;;;;5053304;28;20416;-70
2022/12/01 05:38:13;;;;;;;28.97;20.33;;;9.30;99.90;;;;;;5053145;28;20938;-69
2022/12/01 05:40:39;;;;;;;28.80;16.73;;;9.20;99.90;;;;;;5049922;28;20519;-70
2022/12/01 05:43:05;;;;;;;27.10;19.93;;;9.30;99.90;;;;;;5052286;28;20195;-69
2022/12/01 05:45:31;;;;;;;30.37;18.40;;;9.20;99.90;;;;;;5053241;28;20424;-70
2022/12/01 05:47:59;;;;;;;33.83;20.20;;;9.30;99.90;;;;;;5054034;28;20440;-70
2022/12/01 05:50:26;;;;;;;30.90;17.60;;;9.30;99.90;;;;;;5052968;28;20416;-70
2022/12/01 05:52:52;;;;;;;31.03;18.50;;;9.40;99.90;;;;;;5051742;28;20472;-69
2022/12/01 05:55:18;;;;;;;33.90;19.27;;;9.40;99.90;;;;;;5045954;28;20465;-72
2022/12/01 05:57:44;;;;;;;38.30;19.83;;;9.50;99.90;;;;;;5059634;28;20190;-69
2022/12/01 06:00:10;;;;;;;27.07;16.87;;;9.40;99.90;;;;;;5053521;28;20313;-70
2022/12/01 06:02:36;;;;;;;33.40;18.53;;;9.40;99.90;;;;;;5050112;28;20471;-70
2022/12/01 06:05:02;;;;;;;31.73;17.13;;;9.40;99.90;;;;;;5052525;28;20417;-70
2022/12/01 06:07:27;;;;;;;30.57;18.43;;;9.40;99.90;;;;;;5053032;28;20258;-70
2022/12/01 06:09:53;;;;;;;30.70;17.90;;;9.40;99.90;;;;;;5053444;28;20183;-70
2022/12/01 06:12:19;;;;;;;30.90;18.13;;;9.40;99.90;;;;;;5053367;28;20211;-71
2022/12/01 06:14:45;;;;;;;31.07;17.50;;;9.20;99.90;;;;;;5052026;28;20178;-69
2022/12/01 06:17:11;;;;;;;27.00;17.40;;;9.20;99.90;;;;;;5049880;28;20581;-70
2022/12/01 06:19:37;;;;;;;32.20;16.17;;;9.20;99.90;;;;;;5033330;28;20179;-70
2022/12/01 06:22:03;;;;;;;26.97;16.17;;;9.10;99.90;;;;;;5046901;28;20436;-69
2022/12/01 06:24:29;;;;;;;28.37;15.87;;;9.20;99.90;;;;;;5052197;28;20204;-70
2022/12/01 06:26:54;;;;;;;29.40;17.13;;;9.20;99.90;;;;;;5050839;28;20460;-71
2022/12/01 06:29:20;;;;;;;26.57;17.70;;;9.40;99.90;;;;;;5061550;28;20186;-72
2022/12/01 06:31:46;;;;;;;22.10;15.03;;;9.50;99.90;;;;;;5045698;28;20182;-70
2022/12/01 06:34:11;;;;;;;27.23;15.47;;;9.70;99.90;;;;;;5052421;28;20190;-70
2022/12/01 06:36:37;;;;;;;24.23;15.07;;;9.80;99.90;;;;;;5052811;28;20264;-70
2022/12/01 06:39:10;;;;;;;24.40;15.10;;;10.00;99.90;;;;;;5053195;28;20178;-70
2022/12/01 06:41:37;;;;;;;24.07;14.73;;;10.10;99.90;;;;;;5052577;28;20193;-70
2022/12/01 06:44:02;;;;;;;23.13;15.27;;;10.20;99.90;;;;;;5052938;28;20498;-70
2022/12/01 06:46:28;;;;;;;20.67;15.03;;;10.40;99.90;;;;;;5052165;28;20445;-70
2022/12/01 06:48:54;;;;;;;21.10;14.47;;;10.40;99.90;;;;;;5059770;28;20426;-70
2022/12/01 06:51:20;;;;;;;20.90;13.37;;;10.40;99.90;;;;;;5059390;28;20250;-70
2022/12/01 06:53:45;;;;;;;22.07;13.63;;;10.50;99.90;;;;;;5052653;28;20258;-70
2022/12/01 06:56:11;;;;;;;24.37;17.07;;;10.50;99.90;;;;;;5053267;28;20205;-70
2022/12/01 06:58:37;;;;;;;19.23;13.23;;;10.50;99.90;;;;;;5052031;28;20173;-70
2022/12/01 07:01:10;;;;;;;19.40;13.93;;;10.60;99.90;;;;;;5053123;28;20587;-70
2022/12/01 07:03:39;;;;;;;19.90;14.60;;;10.60;99.90;;;;;;5048999;28;20217;-71
2022/12/01 07:06:05;;;;;;;26.53;15.30;;;10.70;99.90;;;;;;5052701;28;20499;-70
2022/12/01 07:08:31;;;;;;;21.57;14.10;;;10.70;99.90;;;;;;5051984;28;20509;-69
2022/12/01 07:11:03;;;;;;;20.17;13.73;;;10.90;99.90;;;;;;5052657;28;20623;-70
2022/12/01 07:13:29;;;;;;;23.07;15.07;;;10.80;99.90;;;;;;5052161;28;20422;-69
2022/12/01 07:15:56;;;;;;;23.43;15.00;;;10.50;99.90;;;;;;5072135;28;20413;-69
2022/12/01 07:18:22;;;;;;;23.43;13.83;;;10.30;99.90;;;;;;5046550;28;20524;-69
2022/12/01 07:20:48;;;;;;;24.80;17.67;;;9.90;99.90;;;;;;5044579;28;20507;-70
2022/12/01 07:23:13;;;;;;;21.50;13.10;;;10.00;99.90;;;;;;5049610;28;20456;-69
2022/12/01 07:25:39;;;;;;;22.67;14.50;;;9.80;99.90;;;;;;5052058;28;20531;-69
2022/12/01 07:28:05;;;;;;;21.17;15.70;;;9.70;99.90;;;;;;5052482;28;20658;-69
2022/12/01 07:30:31;;;;;;;20.63;15.70;;;9.80;99.90;;;;;;5052184;28;20177;-69
2022/12/01 07:32:56;;;;;;;23.23;14.33;;;9.60;99.90;;;;;;5048206;28;20222;-69
2022/12/01 07:35:22;;;;;;;23.23;14.40;;;9.60;99.90;;;;;;5046596;28;20254;-69
2022/12/01 07:37:56;;;;;;;22.17;14.20;;;9.60;99.90;;;;;;5044000;28;20638;-69
2022/12/01 07:40:22;;;;;;;23.70;15.70;;;9.60;99.90;;;;;;5052066;28;20654;-69
2022/12/01 07:42:48;;;;;;;21.10;14.60;;;9.60;99.90;;;;;;5051691;28;20779;-69
2022/12/01 07:45:14;;;;;;;22.80;13.63;;;9.50;99.90;;;;;;5052366;28;20439;-69
2022/12/01 07:47:39;;;;;;;20.33;14.03;;;9.40;99.90;;;;;;5051769;28;20196;-69
2022/12/01 07:50:06;;;;;;;25.00;15.63;;;9.30;99.90;;;;;;5052349;28;20178;-69
2022/12/01 07:52:31;;;;;;;22.87;14.77;;;9.20;99.90;;;;;;5052043;28;20178;-69
2022/12/01 07:54:57;;;;;;;24.07;15.07;;;9.30;99.90;;;;;;5052223;28;20460;-69
2022/12/01 07:57:23;;;;;;;19.63;13.80;;;9.30;99.90;;;;;;5052158;28;20272;-69
2022/12/01 07:59:49;;;;;;;22.00;15.10;;;9.10;99.90;;;;;;5051142;28;20854;-69
2022/12/01 08:02:14;;;;;;;23.03;15.23;;;9.10;99.90;;;;;;5051087;28;20501;-69
2022/12/01 08:04:42;;;;;;;22.00;14.30;;;9.10;99.90;;;;;;5053721;28;20217;-69
2022/12/01 08:07:08;;;;;;;23.30;14.70;;;9.10;99.90;;;;;;5056241;28;20293;-69
2022/12/01 08:09:33;;;;;;;22.37;15.30;;;9.10;99.90;;;;;;5055620;28;20873;-69
2022/12/01 08:11:59;;;;;;;23.97;14.40;;;9.10;99.90;;;;;;5056205;28;20181;-69
2022/12/01 08:14:25;;;;;;;20.63;13.70;;;9.10;99.90;;;;;;5055932;28;20213;-69
2022/12/01 08:16:50;;;;;;;22.20;13.73;;;9.10;99.90;;;;;;5058597;28;20173;-69
2022/12/01 08:19:16;;;;;;;25.93;15.20;;;9.10;99.90;;;;;;5061159;28;20189;-69
2022/12/01 08:21:41;;;;;;;26.07;14.83;;;9.10;99.90;;;;;;5057950;28;20185;-69
2022/12/01 08:24:09;;;;;;;23.23;17.20;;;9.10;99.90;;;;;;5075723;28;20208;-69
2022/12/01 08:26:35;;;;;;;22.70;16.67;;;9.10;99.90;;;;;;5075196;28;20173;-69
2022/12/01 08:29:01;;;;;;;26.73;15.70;;;9.10;99.90;;;;;;5075344;28;20502;-69
2022/12/01 08:31:30;;;;;;;22.90;15.83;;;9.20;99.90;;;;;;5057152;28;20185;-72
2022/12/01 08:33:56;;;;;;;23.20;16.40;;;9.10;99.90;;;;;;5054325;28;20178;-69
2022/12/01 08:36:23;;;;;;;18.90;14.63;;;9.10;99.90;;;;;;5069059;28;20419;-69
2022/12/01 08:38:52;;;;;;;23.67;14.53;;;9.00;99.90;;;;;;5074482;28;20812;-69
2022/12/01 08:41:18;;;;;;;23.10;14.40;;;9.00;99.90;;;;;;5069260;28;20425;-69
2022/12/01 08:43:44;;;;;;;20.43;13.90;;;9.00;99.90;;;;;;5046623;28;21087;-69
2022/12/01 08:46:13;;;;;;;21.00;13.63;;;9.00;99.90;;;;;;5039892;28;20523;-70
2022/12/01 08:48:39;;;;;;;20.07;13.13;;;8.90;99.90;;;;;;5049064;28;20766;-69
2022/12/01 08:51:07;;;;;;;19.80;13.40;;;8.80;99.90;;;;;;5038876;28;20437;-69
2022/12/01 08:53:34;;;;;;;18.37;13.57;;;8.80;99.90;;;;;;5051954;28;20531;-69
2022/12/01 08:56:25;;;;;;;19.90;13.63;;;8.80;99.90;;;;;;5044248;28;20483;-69
2022/12/01 08:58:52;;;;;;;18.63;12.83;;;8.80;99.90;;;;;;5045673;28;20436;-70
2022/12/01 09:01:18;;;;;;;22.33;14.60;;;9.00;99.90;;;;;;5040873;28;20532;-71
2022/12/01 09:03:44;;;;;;;29.67;17.27;;;8.90;99.90;;;;;;5053414;28;20459;-69
2022/12/01 09:06:21;;;;;;;27.20;16.63;;;8.80;99.90;;;;;;5072224;28;20442;-69
2022/12/01 09:08:47;;;;;;;28.90;17.73;;;8.80;99.90;;;;;;5074577;28;20394;-69
2022/12/01 09:11:16;;;;;;;34.60;21.60;;;8.80;99.90;;;;;;5075045;28;20407;-70
2022/12/01 09:13:42;;;;;;;30.40;18.33;;;8.80;99.90;;;;;;5074337;28;20414;-70
2022/12/01 09:16:13;;;;;;;30.47;17.73;;;8.80;99.90;;;;;;5073785;28;20411;-70
2022/12/01 09:18:40;;;;;;;34.57;19.97;;;8.80;99.90;;;;;;5069312;28;20420;-70
2022/12/01 09:21:27;;;;;;;35.33;21.83;;;9.00;99.90;;;;;;5046141;28;20439;-71
2022/12/01 09:23:53;;;;;;;34.63;20.87;;;8.90;99.90;;;;;;5050407;28;20525;-70
2022/12/01 09:26:19;;;;;;;35.60;19.73;;;8.80;99.90;;;;;;5053642;28;20956;-69
2022/12/01 09:28:47;;;;;;;28.70;18.53;;;8.90;99.90;;;;;;5053984;28;20440;-69
2022/12/01 09:31:15;;;;;;;33.23;21.53;;;9.00;99.90;;;;;;5048867;28;20441;-70
2022/12/01 09:33:41;;;;;;;33.50;20.87;;;9.00;99.90;;;;;;5054004;28;20933;-70
2022/12/01 09:36:08;;;;;;;34.87;22.47;;;9.10;99.90;;;;;;5048006;28;20424;-69
2022/12/01 09:38:35;;;;;;;33.60;20.47;;;9.10;99.90;;;;;;5049681;28;20761;-69
2022/12/01 09:41:24;;;;;;;30.40;18.63;;;9.10;99.90;;;;;;5054099;28;20424;-70
2022/12/01 09:43:59;;;;;;;33.80;19.70;;;9.20;99.90;;;;;;5053255;28;20499;-70
2022/12/01 09:46:32;;;;;;;37.40;20.00;;;9.20;99.90;;;;;;5054527;28;20822;-69
2022/12/01 09:49:00;;;;;;;39.90;24.23;;;9.20;99.90;;;;;;5053286;28;20909;-70
2022/12/01 09:51:27;;;;;;;29.43;19.10;;;9.10;99.90;;;;;;5054268;28;20416;-70
2022/12/01 09:53:57;;;;;;;35.17;22.37;;;9.10;99.90;;;;;;5053578;28;20420;-70
2022/12/01 09:56:27;;;;;;;34.10;20.20;;;9.20;99.90;;;;;;5054591;28;20409;-70
2022/12/01 09:59:01;;;;;;;34.07;20.60;;;9.20;99.90;;;;;;5053503;28;20454;-70
2022/12/01 10:01:35;;;;;;;34.53;21.80;;;9.20;99.90;;;;;;5035177;28;20498;-70
2022/12/01 10:04:20;;;;;;;34.70;21.53;;;9.30;99.90;;;;;;5054007;28;20505;-70
2022/12/01 10:07:00;;;;;;;39.50;23.03;;;9.30;99.90;;;;;;5052746;28;20426;-70
2022/12/01 10:09:34;;;;;;;35.33;21.60;;;9.40;99.90;;;;;;5052765;28;20748;-69
2022/12/01 10:12:17;;;;;;;42.97;21.87;;;9.40;99.90;;;;;;5054154;28;20467;-70
2022/12/01 10:14:47;;;;;;;41.20;23.03;;;9.30;99.90;;;;;;5017998;28;20425;-70
2022/12/01 10:17:22;;;;;;;42.43;22.47;;;9.30;99.90;;;;;;5052921;28;20430;-70
2022/12/01 10:20:12;;;;;;;39.67;22.77;;;9.30;99.90;;;;;;5053038;28;20811;-70
2022/12/01 10:22:59;;;;;;;38.67;23.37;;;9.30;99.90;;;;;;5053073;28;20438;-70
2022/12/01 10:25:27;;;;;;;43.37;25.43;;;9.40;99.90;;;;;;5053605;28;20413;-70
2022/12/01 10:28:01;;;;;;;37.90;23.10;;;9.30;99.90;;;;;;5052835;28;20468;-70
2022/12/01 10:30:26;;;;;;;39.80;25.07;;;9.40;99.90;;;;;;5053779;28;20515;-70
2022/12/01 10:32:52;;;;;;;39.23;23.77;;;9.30;99.90;;;;;;5049456;28;20531;-69
2022/12/01 10:35:34;;;;;;;37.77;24.30;;;9.40;99.90;;;;;;5048148;28;20227;-70
2022/12/01 10:38:04;;;;;;;37.13;23.83;;;9.40;99.90;;;;;;5030893;28;20610;-70
2022/12/01 10:40:34;;;;;;;44.00;25.73;;;9.40;99.90;;;;;;5053232;28;20537;-70
2022/12/01 10:43:00;;;;;;;41.43;23.47;;;9.40;99.90;;;;;;5052829;28;20459;-69
2022/12/01 10:45:34;;;;;;;39.40;23.70;;;9.40;99.90;;;;;;5053263;28;20420;-69
2022/12/01 10:48:16;;;;;;;42.17;24.80;;;9.40;99.90;;;;;;5052869;28;20405;-69
2022/12/01 10:50:53;;;;;;;46.13;25.73;;;9.40;99.90;;;;;;5051360;28;20846;-70
2022/12/01 10:53:31;;;;;;;38.53;24.37;;;9.30;99.90;;;;;;5053151;28;20478;-70
2022/12/01 10:56:11;;;;;;;41.90;26.13;;;9.20;99.90;;;;;;5052196;28;20408;-69
2022/12/01 10:58:56;;;;;;;42.57;24.27;;;9.20;99.90;;;;;;5052390;28;20404;-70
2022/12/01 11:01:27;;;;;;;44.10;25.90;;;9.20;99.90;;;;;;5053148;28;20789;-69
2022/12/01 11:03:58;;;;;;;46.37;26.73;;;9.20;99.90;;;;;;5050173;28;20523;-70
2022/12/01 11:06:28;;;;;;;43.83;26.93;;;9.30;99.90;;;;;;5051478;28;20850;-70
2022/12/01 11:09:03;;;;;;;43.30;26.27;;;9.30;99.90;;;;;;5052250;28;20412;-69
2022/12/01 11:11:35;;;;;;;43.97;25.87;;;9.20;99.90;;;;;;5052909;28;20442;-69
2022/12/01 11:14:20;;;;;;;42.13;25.37;;;9.20;99.90;;;;;;5052293;28;20809;-70
2022/12/01 11:16:48;;;;;;;45.23;25.77;;;9.30;99.90;;;;;;5052173;28;20442;-69
2022/12/01 11:19:32;;;;;;;42.83;27.00;;;9.50;99.90;;;;;;5051414;28;20425;-69
2022/12/01 11:22:00;;;;;;;45.37;28.47;;;9.50;99.90;;;;;;5050712;28;20423;-69
2022/12/01 11:24:29;;;;;;;39.10;24.20;;;9.50;99.90;;;;;;5052621;28;20444;-69
2022/12/01 11:26:57;;;;;;;42.10;25.53;;;9.60;99.90;;;;;;5050112;28;20441;-70
2022/12/01 11:29:36;;;;;;;43.30;26.30;;;9.60;99.90;;;;;;5052142;28;20462;-70
2022/12/01 11:32:16;;;;;;;46.00;26.57;;;9.70;99.90;;;;;;5052251;28;20948;-70
2022/12/01 11:34:49;;;;;;;36.60;24.20;;;9.70;99.90;;;;;;5052020;28;20393;-70
2022/12/01 11:37:17;;;;;;;48.43;29.40;;;9.60;99.90;;;;;;5051231;28;20764;-69
2022/12/01 11:39:44;;;;;;;43.50;25.63;;;9.70;99.90;;;;;;5051587;28;20405;-70
2022/12/01 11:42:13;;;;;;;44.00;25.70;;;9.70;99.90;;;;;;5052730;28;20417;-70
2022/12/01 11:44:46;;;;;;;44.23;27.27;;;9.70;99.90;;;;;;5051784;28;20460;-70
2022/12/01 11:47:14;;;;;;;48.33;28.13;;;9.60;99.90;;;;;;5052295;28;20464;-69
2022/12/01 11:49:44;;;;;;;43.23;25.10;;;9.60;99.90;;;;;;5051950;28;20425;-69
2022/12/01 11:52:22;;;;;;;45.80;25.87;;;9.60;99.90;;;;;;5052311;28;20491;-69
2022/12/01 11:54:58;;;;;;;49.33;26.20;;;9.60;99.90;;;;;;5052044;28;20406;-69
2022/12/01 11:57:25;;;;;;;45.77;26.50;;;9.70;99.90;;;;;;5050721;28;20446;-69
2022/12/01 11:59:51;;;;;;;43.07;26.30;;;9.70;99.90;;;;;;5051602;28;20525;-69
2022/12/01 12:02:36;;;;;;;49.47;28.67;;;9.50;99.90;;;;;;5051966;28;20413;-69
2022/12/01 12:05:41;;;;;;;42.20;25.43;;;9.50;99.90;;;;;;5051645;28;20178;-70
2022/12/01 12:08:31;;;;;;;40.33;26.30;;;9.30;99.90;;;;;;5029668;28;20418;-68
2022/12/01 12:11:22;;;;;;;41.40;25.80;;;9.30;99.90;;;;;;5050556;28;20920;-69
2022/12/01 12:14:07;;;;;;;43.70;27.23;;;9.40;99.90;;;;;;5051620;28;20460;-69
2022/12/01 12:16:59;;;;;;;45.60;27.77;;;9.40;99.90;;;;;;5052426;28;20416;-69
2022/12/01 12:19:56;;;;;;;41.67;27.33;;;9.40;99.90;;;;;;5051115;28;20406;-69
2022/12/01 12:22:41;;;;;;;40.43;25.33;;;9.50;99.90;;;;;;5052347;28;20893;-69
2022/12/01 12:25:28;;;;;;;41.10;24.33;;;9.60;99.90;;;;;;5052127;28;20484;-69
2022/12/01 12:28:29;;;;;;;34.53;22.50;;;9.70;99.90;;;;;;5048684;28;20420;-69
2022/12/01 12:31:15;;;;;;;34.07;22.20;;;9.70;99.90;;;;;;5042520;28;20498;-69
2022/12/01 12:33:54;;;;;;;32.20;22.37;;;9.80;99.90;;;;;;5051391;28;20428;-69
2022/12/01 12:36:30;;;;;;;33.70;22.50;;;9.80;99.90;;;;;;5052117;28;20404;-69
2022/12/01 12:39:23;;;;;;;29.33;19.53;;;9.90;99.90;;;;;;5051436;28;20410;-69
2022/12/01 12:41:52;;;;;;;30.77;20.80;;;10.00;99.90;;;;;;5051439;28;20422;-69
2022/12/01 12:44:40;;;;;;;31.50;21.47;;;10.00;99.90;;;;;;5051510;28;20926;-69
2022/12/01 12:47:30;;;;;;;36.03;21.70;;;10.10;99.90;;;;;;5051214;28;20419;-69
2022/12/01 12:50:18;;;;;;;33.27;22.30;;;10.10;99.90;;;;;;5052084;28;20396;-69
2022/12/01 12:52:50;;;;;;;32.23;24.13;;;10.10;99.90;;;;;;5054808;28;20426;-69
2022/12/01 12:55:22;;;;;;;34.30;21.60;;;10.10;99.90;;;;;;5055513;28;20400;-69
2022/12/01 12:58:13;;;;;;;29.07;21.80;;;10.10;99.90;;;;;;5052139;28;20464;-69